WAT5464 LQSA-LYBE
Flight info
| Callsign | WAT5464 |
|---|---|
| Flight time | 0h 31m |
| Altitude | 39000 |
| Route | VRANA Y88 KEB DCT SOMUN L5 ENUPU |
| Aircraft | HDJT/L-SABDGRWY/H |
Departure
| Time | 2026-04-21 01:17 |
|---|---|
| Airport | Sarajevo International Airport (LQSA) |
Arrival
| Time | 2026-04-21 01:48 |
|---|---|
| Airport | Belgrade Nikola Tesla Airport (LYBE) |
| Time | Latitude | Longitude | Altitude | Speed | Heading |
|---|---|---|---|---|---|
| 2026-04-21 01:17 | 43.91671 | 18.36133 | 19033 ft | 393 kts | 73° |
| 2026-04-21 01:17 | 43.92424 | 18.39779 | 19027 ft | 392 kts | 67° |
| 2026-04-21 01:17 | 43.93601 | 18.43158 | 19028 ft | 388 kts | 55° |
| 2026-04-21 01:17 | 43.95169 | 18.46103 | 19021 ft | 382 kts | 43° |
| 2026-04-21 01:18 | 43.97126 | 18.48620 | 19021 ft | 376 kts | 32° |
| 2026-04-21 01:18 | 43.99232 | 18.50677 | 19015 ft | 375 kts | 29° |
| 2026-04-21 01:18 | 44.01366 | 18.52760 | 19018 ft | 375 kts | 30° |
| 2026-04-21 01:18 | 44.03493 | 18.54861 | 19021 ft | 375 kts | 30° |
| 2026-04-21 01:19 | 44.05631 | 18.56958 | 19021 ft | 375 kts | 30° |
| 2026-04-21 01:19 | 44.07756 | 18.59034 | 19019 ft | 374 kts | 30° |
| 2026-04-21 01:19 | 44.09887 | 18.61125 | 19028 ft | 374 kts | 30° |
| 2026-04-21 01:19 | 44.12010 | 18.63216 | 19019 ft | 374 kts | 30° |
| 2026-04-21 01:20 | 44.14140 | 18.65306 | 19021 ft | 374 kts | 30° |
| 2026-04-21 01:20 | 44.16264 | 18.67394 | 19027 ft | 374 kts | 30° |
| 2026-04-21 01:20 | 44.18393 | 18.69492 | 19024 ft | 373 kts | 30° |
| 2026-04-21 01:20 | 44.20509 | 18.71580 | 19028 ft | 374 kts | 30° |
| 2026-04-21 01:21 | 44.22631 | 18.73674 | 19037 ft | 373 kts | 30° |
| 2026-04-21 01:21 | 44.24740 | 18.75756 | 19029 ft | 372 kts | 30° |
| 2026-04-21 01:21 | 44.26849 | 18.77840 | 19032 ft | 372 kts | 30° |
| 2026-04-21 01:21 | 44.28956 | 18.79926 | 19034 ft | 371 kts | 30° |
| 2026-04-21 01:22 | 44.31066 | 18.82016 | 19031 ft | 371 kts | 30° |
| 2026-04-21 01:22 | 44.33176 | 18.84105 | 19034 ft | 372 kts | 30° |
| 2026-04-21 01:22 | 44.35286 | 18.86199 | 19041 ft | 372 kts | 30° |
| 2026-04-21 01:22 | 44.37400 | 18.88300 | 19040 ft | 372 kts | 30° |
| 2026-04-21 01:23 | 44.39511 | 18.90398 | 19043 ft | 374 kts | 30° |
| 2026-04-21 01:23 | 44.41640 | 18.92513 | 19044 ft | 376 kts | 30° |
| 2026-04-21 01:23 | 44.43741 | 18.94607 | 19048 ft | 376 kts | 30° |
| 2026-04-21 01:23 | 44.45869 | 18.96729 | 19046 ft | 376 kts | 30° |
| 2026-04-21 01:24 | 44.47999 | 18.98852 | 19039 ft | 376 kts | 30° |
| 2026-04-21 01:24 | 44.50126 | 19.00976 | 19044 ft | 376 kts | 30° |
| 2026-04-21 01:24 | 44.52253 | 19.03102 | 19042 ft | 376 kts | 30° |
| 2026-04-21 01:24 | 44.54383 | 19.05233 | 19043 ft | 376 kts | 31° |
| 2026-04-21 01:25 | 44.56400 | 19.07592 | 19047 ft | 384 kts | 41° |
| 2026-04-21 01:25 | 44.58099 | 19.10545 | 19048 ft | 392 kts | 53° |
| 2026-04-21 01:25 | 44.59374 | 19.13928 | 19046 ft | 396 kts | 65° |
| 2026-04-21 01:25 | 44.60166 | 19.17645 | 19045 ft | 398 kts | 78° |
| 2026-04-21 01:26 | 44.60514 | 19.21503 | 19040 ft | 399 kts | 83° |
| 2026-04-21 01:26 | 44.60814 | 19.25372 | 19042 ft | 399 kts | 83° |
| 2026-04-21 01:26 | 44.61025 | 19.27935 | 19041 ft | 399 kts | 82° |
| 2026-04-21 01:26 | 44.61553 | 19.33079 | 19046 ft | 397 kts | 74° |
| 2026-04-21 01:27 | 44.62105 | 19.35523 | 19042 ft | 396 kts | 66° |
| 2026-04-21 01:27 | 44.63324 | 19.38961 | 19040 ft | 392 kts | 54° |
| 2026-04-21 01:27 | 44.64930 | 19.42017 | 19039 ft | 389 kts | 47° |
| 2026-04-21 01:27 | 44.66613 | 19.44989 | 19037 ft | 389 kts | 47° |
| 2026-04-21 01:28 | 44.68282 | 19.47981 | 19059 ft | 389 kts | 47° |
| 2026-04-21 01:28 | 44.69961 | 19.50991 | 19036 ft | 391 kts | 46° |
| 2026-04-21 01:28 | 44.71643 | 19.53984 | 19037 ft | 391 kts | 46° |
| 2026-04-21 01:28 | 44.73329 | 19.56992 | 19038 ft | 391 kts | 47° |
| 2026-04-21 01:29 | 44.75008 | 19.60001 | 19038 ft | 391 kts | 47° |
| 2026-04-21 01:29 | 44.76684 | 19.63006 | 19036 ft | 391 kts | 47° |
| 2026-04-21 01:29 | 44.78371 | 19.66028 | 19031 ft | 391 kts | 47° |
| 2026-04-21 01:29 | 44.80048 | 19.69039 | 19032 ft | 391 kts | 47° |
| 2026-04-21 01:30 | 44.81723 | 19.72050 | 19032 ft | 391 kts | 47° |
| 2026-04-21 01:30 | 44.83402 | 19.75071 | 18927 ft | 391 kts | 47° |
| 2026-04-21 01:30 | 44.84853 | 19.78261 | 18447 ft | 393 kts | 59° |
| 2026-04-21 01:30 | 44.85869 | 19.81841 | 17899 ft | 394 kts | 71° |
| 2026-04-21 01:31 | 44.86403 | 19.85615 | 17375 ft | 392 kts | 82° |
| 2026-04-21 01:31 | 44.86438 | 19.89440 | 16850 ft | 389 kts | 94° |
| 2026-04-21 01:31 | 44.85985 | 19.93171 | 16345 ft | 384 kts | 106° |
| 2026-04-21 01:31 | 44.85077 | 19.96679 | 15842 ft | 379 kts | 117° |
| 2026-04-21 01:32 | 44.83785 | 19.99875 | 15343 ft | 373 kts | 124° |
| 2026-04-21 01:32 | 44.82415 | 20.02957 | 14845 ft | 369 kts | 123° |
| 2026-04-21 01:32 | 44.81075 | 20.06025 | 14365 ft | 365 kts | 123° |
| 2026-04-21 01:32 | 44.79749 | 20.09048 | 13886 ft | 361 kts | 123° |
| 2026-04-21 01:33 | 44.78426 | 20.12034 | 13379 ft | 357 kts | 123° |
| 2026-04-21 01:33 | 44.77127 | 20.14968 | 12908 ft | 349 kts | 123° |
| 2026-04-21 01:33 | 44.75853 | 20.17854 | 12448 ft | 345 kts | 123° |
| 2026-04-21 01:33 | 44.74587 | 20.20715 | 11987 ft | 345 kts | 123° |
| 2026-04-21 01:34 | 44.73317 | 20.23578 | 11540 ft | 343 kts | 123° |
| 2026-04-21 01:34 | 44.72074 | 20.26383 | 11091 ft | 330 kts | 123° |
| 2026-04-21 01:34 | 44.70883 | 20.29069 | 10664 ft | 318 kts | 124° |
| 2026-04-21 01:34 | 44.69731 | 20.31659 | 10252 ft | 308 kts | 124° |
| 2026-04-21 01:35 | 44.68604 | 20.34191 | 9840 ft | 304 kts | 124° |
| 2026-04-21 01:35 | 44.67490 | 20.36695 | 9422 ft | 301 kts | 124° |
| 2026-04-21 01:35 | 44.66386 | 20.39173 | 9022 ft | 298 kts | 123° |
| 2026-04-21 01:35 | 44.65293 | 20.41623 | 8631 ft | 294 kts | 123° |
| 2026-04-21 01:36 | 44.64208 | 20.44053 | 8247 ft | 292 kts | 122° |
| 2026-04-21 01:36 | 44.63136 | 20.46452 | 7856 ft | 289 kts | 122° |
| 2026-04-21 01:36 | 44.62071 | 20.48836 | 7478 ft | 286 kts | 122° |
| 2026-04-21 01:36 | 44.61017 | 20.51191 | 7102 ft | 284 kts | 121° |
| 2026-04-21 01:37 | 44.59975 | 20.53519 | 7025 ft | 281 kts | 121° |
| 2026-04-21 01:37 | 44.58941 | 20.55824 | 7017 ft | 282 kts | 121° |
| 2026-04-21 01:37 | 44.57924 | 20.58088 | 7018 ft | 265 kts | 121° |
| 2026-04-21 01:37 | 44.56959 | 20.60237 | 7016 ft | 259 kts | 121° |
| 2026-04-21 01:38 | 44.55994 | 20.62388 | 7015 ft | 261 kts | 121° |
| 2026-04-21 01:38 | 44.55027 | 20.64540 | 7013 ft | 260 kts | 121° |
| 2026-04-21 01:38 | 44.54060 | 20.66686 | 7009 ft | 260 kts | 121° |
| 2026-04-21 01:38 | 44.53093 | 20.68832 | 7010 ft | 261 kts | 121° |
| 2026-04-21 01:39 | 44.52233 | 20.71055 | 7007 ft | 258 kts | 106° |
| 2026-04-21 01:39 | 44.51978 | 20.73520 | 7008 ft | 256 kts | 85° |
| 2026-04-21 01:39 | 44.52341 | 20.75941 | 7012 ft | 254 kts | 65° |
| 2026-04-21 01:39 | 44.53265 | 20.78012 | 7021 ft | 250 kts | 45° |
| 2026-04-21 01:40 | 44.54618 | 20.79499 | 7024 ft | 247 kts | 25° |
| 2026-04-21 01:40 | 44.56232 | 20.80251 | 7022 ft | 244 kts | 6° |
| 2026-04-21 01:40 | 44.57916 | 20.80209 | 6916 ft | 242 kts | 348° |
| 2026-04-21 01:40 | 44.59484 | 20.79387 | 6697 ft | 241 kts | 330° |
| 2026-04-21 01:41 | 44.60768 | 20.77887 | 6451 ft | 243 kts | 311° |
| 2026-04-21 01:41 | 44.61711 | 20.75908 | 6174 ft | 244 kts | 303° |
| 2026-04-21 01:41 | 44.62602 | 20.73900 | 5909 ft | 243 kts | 304° |
| 2026-04-21 01:41 | 44.63507 | 20.71893 | 5643 ft | 242 kts | 304° |
| 2026-04-21 01:42 | 44.64466 | 20.69746 | 5372 ft | 280 kts | 303° |
| 2026-04-21 01:42 | 44.65489 | 20.67423 | 5060 ft | 276 kts | 303° |
| 2026-04-21 01:42 | 44.66470 | 20.65144 | 4746 ft | 264 kts | 303° |
| 2026-04-21 01:42 | 44.67362 | 20.63070 | 4401 ft | 238 kts | 303° |
| 2026-04-21 01:43 | 44.68199 | 20.61206 | 4114 ft | 225 kts | 304° |
| 2026-04-21 01:43 | 44.69060 | 20.59357 | 3881 ft | 228 kts | 305° |
| 2026-04-21 01:43 | 44.69964 | 20.57483 | 3698 ft | 231 kts | 306° |
| 2026-04-21 01:43 | 44.70869 | 20.55667 | 3577 ft | 224 kts | 307° |
| 2026-04-21 01:44 | 44.71741 | 20.53909 | 3543 ft | 215 kts | 305° |
| 2026-04-21 01:44 | 44.72543 | 20.52154 | 3453 ft | 215 kts | 304° |
| 2026-04-21 01:44 | 44.73320 | 20.50343 | 3302 ft | 218 kts | 302° |
| 2026-04-21 01:44 | 44.74095 | 20.48469 | 3047 ft | 226 kts | 301° |
| 2026-04-21 01:45 | 44.74875 | 20.46593 | 2761 ft | 208 kts | 302° |
| 2026-04-21 01:45 | 44.75579 | 20.44979 | 2446 ft | 184 kts | 303° |
| 2026-04-21 01:45 | 44.76272 | 20.43464 | 2168 ft | 184 kts | 303° |
| 2026-04-21 01:45 | 44.76963 | 20.41958 | 1900 ft | 180 kts | 303° |
| 2026-04-21 01:46 | 44.77600 | 20.40491 | 1635 ft | 169 kts | 301° |
| 2026-04-21 01:46 | 44.78187 | 20.39124 | 1395 ft | 158 kts | 302° |
| 2026-04-21 01:46 | 44.78773 | 20.37822 | 1191 ft | 159 kts | 303° |
| 2026-04-21 01:46 | 44.79326 | 20.36624 | 1002 ft | 161 kts | 301° |
| 2026-04-21 01:47 | 44.79903 | 20.35269 | 802 ft | 163 kts | 301° |
| 2026-04-21 01:47 | 44.80507 | 20.33926 | 588 ft | 162 kts | 301° |
| 2026-04-21 01:47 | 44.81086 | 20.32616 | 392 ft | 152 kts | 301° |
| 2026-04-21 01:47 | 44.81619 | 20.31411 | 305 ft | 132 kts | 301° |
| 2026-04-21 01:48 | 44.82017 | 20.30521 | 299 ft | 57 kts | 302° |
| 2026-04-21 01:48 | 44.82138 | 20.30226 | 298 ft | 30 kts | 294° |
| 2026-04-21 01:48 | 44.82168 | 20.30055 | 300 ft | 20 kts | 271° |
| 2026-04-21 01:48 | 44.82170 | 20.29850 | 302 ft | 17 kts | 269° |
| 2026-04-21 01:49 | 44.82143 | 20.29682 | 304 ft | 18 kts | 224° |
| 2026-04-21 01:49 | 44.82031 | 20.29580 | 304 ft | 21 kts | 211° |
| 2026-04-21 01:49 | 44.81926 | 20.29492 | 301 ft | 15 kts | 212° |
| 2026-04-21 01:49 | 44.81855 | 20.29432 | 301 ft | 11 kts | 211° |
| 2026-04-21 01:50 | 44.81809 | 20.29463 | 301 ft | 11 kts | 122° |
| 2026-04-21 01:50 | 44.81796 | 20.29492 | 301 ft | 0 kts | 122° |